Time;durP1;ratioP1;P1;durP2;ratioP2;P2;SDS_P1;SDS_P2;PMS_P1;PMS_P2;Temp;Humidity;BMP_temperature;BMP_pressure;BME280_temperature;BME280_humidity;BME280_pressure;Samples;Min_cycle;Max_cycle;Signal;HPM_P1;HPM_P2
2023/06/11 00:01:53;;;;;;;10.57;5.80;;;19.80;99.90;;;;;;5115490;28;20249;-48
2023/06/11 00:04:24;;;;;;;16.57;5.80;;;19.80;99.90;;;;;;5115596;28;20210;-48
2023/06/11 00:06:53;;;;;;;11.13;5.70;;;19.70;99.90;;;;;;5115448;28;20662;-47
2023/06/11 00:09:21;;;;;;;9.07;5.83;;;19.60;99.90;;;;;;5115643;28;20316;-49
2023/06/11 00:11:47;;;;;;;8.57;6.10;;;19.50;99.90;;;;;;5115302;28;20539;-49
2023/06/11 00:14:12;;;;;;;7.33;5.80;;;19.50;99.90;;;;;;5115379;28;20246;-47
2023/06/11 00:16:40;;;;;;;7.37;5.63;;;19.40;99.90;;;;;;5115793;28;20175;-48
2023/06/11 00:19:06;;;;;;;7.23;5.73;;;19.30;99.90;;;;;;5115126;28;20178;-49
2023/06/11 00:21:32;;;;;;;7.27;5.90;;;19.20;99.90;;;;;;5115382;28;20279;-47
2023/06/11 00:23:58;;;;;;;9.33;5.80;;;19.20;99.90;;;;;;5114913;28;20645;-48
2023/06/11 00:26:25;;;;;;;10.23;5.80;;;19.20;99.90;;;;;;5115090;28;20654;-47
2023/06/11 00:28:51;;;;;;;6.27;5.63;;;19.10;99.90;;;;;;5115262;28;20522;-48
2023/06/11 00:31:17;;;;;;;8.93;6.10;;;19.10;99.90;;;;;;5114987;28;20222;-47
2023/06/11 00:33:43;;;;;;;9.60;6.00;;;19.10;99.90;;;;;;5114858;28;20220;-49
2023/06/11 00:36:08;;;;;;;7.00;5.80;;;19.10;99.90;;;;;;5114876;28;20170;-47
2023/06/11 00:38:34;;;;;;;6.80;6.10;;;19.10;99.90;;;;;;5115365;28;20190;-48
2023/06/11 00:41:00;;;;;;;6.67;5.70;;;19.00;99.90;;;;;;5115005;28;20280;-49
2023/06/11 00:43:26;;;;;;;8.10;6.07;;;19.00;99.90;;;;;;5114558;28;20259;-48
2023/06/11 00:45:52;;;;;;;7.50;6.13;;;19.10;99.90;;;;;;5114998;28;20174;-48
2023/06/11 00:48:21;;;;;;;8.73;6.33;;;19.00;99.90;;;;;;5114836;28;20215;-48
2023/06/11 00:50:48;;;;;;;6.70;6.10;;;19.00;99.90;;;;;;5114907;28;20709;-49
2023/06/11 00:53:15;;;;;;;6.60;6.00;;;18.90;99.90;;;;;;5114729;28;20569;-48
2023/06/11 00:55:41;;;;;;;6.50;5.90;;;18.90;99.90;;;;;;5114149;28;20217;-46
2023/06/11 00:58:13;;;;;;;7.17;6.30;;;18.90;99.90;;;;;;5114688;28;20654;-47
2023/06/11 01:00:47;;;;;;;7.27;6.47;;;18.90;99.90;;;;;;5114615;28;20253;-48
2023/06/11 01:03:17;;;;;;;10.27;6.20;;;18.90;99.90;;;;;;5114834;28;20198;-47
2023/06/11 01:06:06;;;;;;;8.40;6.30;;;18.90;99.90;;;;;;5114999;28;20163;-47
2023/06/11 01:08:38;;;;;;;8.87;6.33;;;18.90;99.90;;;;;;5116259;28;20215;-49
2023/06/11 01:11:08;;;;;;;7.67;6.37;;;18.90;99.90;;;;;;5114769;28;20573;-42
2023/06/11 01:13:36;;;;;;;8.90;6.53;;;18.90;99.90;;;;;;5114873;28;20284;-43
2023/06/11 01:16:10;;;;;;;9.10;6.70;;;18.90;99.90;;;;;;5114069;28;20181;-43
2023/06/11 01:18:58;;;;;;;7.43;6.57;;;18.90;99.90;;;;;;5114067;28;20645;-44
2023/06/11 01:21:30;;;;;;;10.80;5.83;;;18.80;99.90;;;;;;5114323;28;20158;-43
2023/06/11 01:24:11;;;;;;;6.63;5.93;;;18.80;99.90;;;;;;5113876;28;20209;-43
2023/06/11 01:27:10;;;;;;;8.50;6.83;;;18.80;99.90;;;;;;5114270;28;20165;-44
2023/06/11 01:29:45;;;;;;;8.67;6.37;;;18.80;99.90;;;;;;5112578;28;20174;-41
2023/06/11 01:32:12;;;;;;;11.23;6.23;;;18.80;99.90;;;;;;5114237;28;20158;-45
2023/06/11 01:34:41;;;;;;;7.40;6.33;;;18.80;99.90;;;;;;5114070;28;20530;-45
2023/06/11 01:37:09;;;;;;;9.30;6.63;;;18.80;99.90;;;;;;5113817;28;20593;-43
2023/06/11 01:39:35;;;;;;;7.00;6.30;;;18.80;99.90;;;;;;5114122;28;20221;-43
2023/06/11 01:42:00;;;;;;;8.37;6.70;;;18.80;99.90;;;;;;5113742;28;20177;-42
2023/06/11 01:44:26;;;;;;;7.33;5.87;;;18.80;99.90;;;;;;5113591;28;20210;-44
2023/06/11 01:46:52;;;;;;;7.93;5.97;;;18.80;99.90;;;;;;5113775;28;20243;-43
2023/06/11 01:49:18;;;;;;;6.77;6.03;;;18.80;99.90;;;;;;5114189;28;20170;-45
2023/06/11 01:51:43;;;;;;;10.20;6.67;;;18.80;99.90;;;;;;5114109;28;20205;-44
2023/06/11 01:54:09;;;;;;;9.93;6.87;;;18.70;99.90;;;;;;5113690;28;20201;-44
2023/06/11 01:56:35;;;;;;;6.00;5.40;;;18.70;99.90;;;;;;5113676;28;20709;-42
2023/06/11 01:59:00;;;;;;;8.83;5.90;;;18.60;99.90;;;;;;5113886;28;20265;-43
2023/06/11 02:01:28;;;;;;;6.77;5.97;;;18.50;99.90;;;;;;5113846;28;20257;-44
2023/06/11 02:03:54;;;;;;;6.53;5.90;;;18.50;99.90;;;;;;5113575;28;20239;-43
2023/06/11 02:06:20;;;;;;;7.00;6.20;;;18.40;99.90;;;;;;5115377;28;20257;-42
2023/06/11 02:08:46;;;;;;;8.20;6.27;;;18.40;99.90;;;;;;5117779;28;20258;-43
2023/06/11 02:11:11;;;;;;;10.07;6.03;;;18.30;99.90;;;;;;5117767;28;20167;-43
2023/06/11 02:13:37;;;;;;;6.67;5.97;;;18.30;99.90;;;;;;5117668;28;20194;-45
2023/06/11 02:16:03;;;;;;;8.47;6.00;;;18.20;99.90;;;;;;5117989;28;20190;-43
2023/06/11 02:18:28;;;;;;;7.70;6.10;;;18.20;99.90;;;;;;5117576;28;20182;-44
2023/06/11 02:20:54;;;;;;;6.73;6.03;;;18.20;99.90;;;;;;5117564;28;20177;-42
2023/06/11 02:23:19;;;;;;;6.87;6.03;;;18.10;99.90;;;;;;5117329;28;20761;-41
2023/06/11 02:25:45;;;;;;;8.77;6.30;;;18.10;99.90;;;;;;5117553;28;20170;-42
2023/06/11 02:28:11;;;;;;;9.60;6.50;;;18.10;99.90;;;;;;5117506;28;20646;-43
2023/06/11 02:30:36;;;;;;;6.80;6.10;;;18.00;99.90;;;;;;5117458;28;20302;-43
2023/06/11 02:33:02;;;;;;;8.30;6.43;;;18.00;99.90;;;;;;5117429;28;20206;-42
2023/06/11 02:35:27;;;;;;;8.90;6.17;;;17.90;99.90;;;;;;5117198;28;20770;-45
2023/06/11 02:37:53;;;;;;;12.37;6.83;;;17.80;99.90;;;;;;5117190;27;20186;-43
2023/06/11 02:40:19;;;;;;;8.90;6.10;;;17.80;99.90;;;;;;5117258;28;20178;-42
2023/06/11 02:42:44;;;;;;;10.07;6.27;;;17.80;99.90;;;;;;5117437;28;20206;-45
2023/06/11 02:45:10;;;;;;;7.40;6.63;;;17.70;99.90;;;;;;5117033;28;20243;-43
2023/06/11 02:47:36;;;;;;;11.33;6.03;;;17.70;99.90;;;;;;5117196;28;20174;-44
2023/06/11 02:50:01;;;;;;;6.83;6.13;;;17.70;99.90;;;;;;5117180;28;20174;-44
2023/06/11 02:52:27;;;;;;;6.83;5.93;;;17.70;99.90;;;;;;5117068;28;20166;-42
2023/06/11 02:54:52;;;;;;;9.57;6.33;;;17.70;99.90;;;;;;5117392;28;20245;-42
2023/06/11 02:57:18;;;;;;;9.77;5.63;;;17.80;99.90;;;;;;5117081;28;20196;-43
2023/06/11 02:59:43;;;;;;;6.70;6.00;;;17.90;99.90;;;;;;5116862;28;20212;-45
2023/06/11 03:02:09;;;;;;;6.67;5.97;;;17.90;99.90;;;;;;5117006;28;20537;-41
2023/06/11 03:04:34;;;;;;;9.80;5.97;;;17.90;99.90;;;;;;5116746;28;20635;-43
2023/06/11 03:07:00;;;;;;;9.40;6.13;;;18.00;99.90;;;;;;5116978;28;20264;-43
2023/06/11 03:09:26;;;;;;;9.77;5.93;;;18.00;99.90;;;;;;5116698;28;20226;-44
2023/06/11 03:11:51;;;;;;;8.53;5.97;;;18.00;99.90;;;;;;5117237;28;20215;-43
2023/06/11 03:14:17;;;;;;;7.00;5.83;;;18.00;99.90;;;;;;5115281;28;20198;-41
2023/06/11 03:16:43;;;;;;;6.53;5.90;;;18.00;99.90;;;;;;5116760;28;20174;-41
2023/06/11 03:19:08;;;;;;;6.57;5.90;;;18.00;99.90;;;;;;5115775;28;20178;-43
2023/06/11 03:21:35;;;;;;;7.37;6.00;;;18.00;99.90;;;;;;5116752;28;20170;-44
2023/06/11 03:24:00;;;;;;;7.77;6.03;;;18.00;99.90;;;;;;5116233;28;20294;-43
2023/06/11 03:26:26;;;;;;;7.27;6.10;;;18.10;99.90;;;;;;5116570;28;20206;-44
2023/06/11 03:28:51;;;;;;;8.17;6.00;;;18.10;99.90;;;;;;5116528;28;20181;-44
2023/06/11 03:31:17;;;;;;;7.33;5.97;;;18.10;99.90;;;;;;5116213;28;20207;-44
2023/06/11 03:33:43;;;;;;;9.10;5.97;;;18.00;99.90;;;;;;5116143;28;20209;-46
2023/06/11 03:36:10;;;;;;;7.97;6.50;;;18.10;99.90;;;;;;5116563;28;20178;-44
2023/06/11 03:38:35;;;;;;;6.77;6.07;;;18.00;99.90;;;;;;5115927;28;20247;-45
2023/06/11 03:41:01;;;;;;;7.10;5.87;;;18.00;99.90;;;;;;5116866;28;20182;-41
2023/06/11 03:43:26;;;;;;;6.77;6.07;;;18.00;99.90;;;;;;5116057;28;20202;-42
2023/06/11 03:45:52;;;;;;;6.80;6.10;;;18.00;99.90;;;;;;5116253;28;20182;-43
2023/06/11 03:48:18;;;;;;;7.87;6.07;;;18.00;99.90;;;;;;5116056;28;20646;-43
2023/06/11 03:50:43;;;;;;;8.93;6.10;;;18.00;99.90;;;;;;5116207;28;20178;-43
2023/06/11 03:53:09;;;;;;;10.97;6.40;;;18.00;99.90;;;;;;5116249;28;20174;-43
2023/06/11 03:55:34;;;;;;;8.17;6.33;;;18.00;99.90;;;;;;5116365;28;20178;-44
2023/06/11 03:58:00;;;;;;;7.13;5.80;;;18.10;99.90;;;;;;5115746;28;20264;-43
2023/06/11 04:00:30;;;;;;;7.67;6.40;;;18.00;99.90;;;;;;5115889;28;20177;-44
2023/06/11 04:02:56;;;;;;;7.73;6.37;;;18.00;99.90;;;;;;5116017;28;20159;-42
2023/06/11 04:05:21;;;;;;;8.20;6.27;;;18.00;99.90;;;;;;5115750;28;20275;-42
2023/06/11 04:07:47;;;;;;;8.53;6.67;;;18.10;99.90;;;;;;5115797;28;20167;-43
2023/06/11 04:10:13;;;;;;;9.33;6.87;;;18.10;99.90;;;;;;5116366;28;20166;-43
2023/06/11 04:12:38;;;;;;;8.17;6.27;;;18.10;99.90;;;;;;5115865;28;20185;-43
2023/06/11 04:15:05;;;;;;;7.07;6.37;;;18.10;99.90;;;;;;5115768;28;20202;-43
2023/06/11 04:17:30;;;;;;;7.00;6.30;;;18.10;99.90;;;;;;5115626;28;20174;-43
2023/06/11 04:19:56;;;;;;;9.80;7.10;;;18.20;99.90;;;;;;5115580;28;20185;-44
2023/06/11 04:22:21;;;;;;;7.37;6.53;;;18.20;99.90;;;;;;5115675;28;20269;-43
2023/06/11 04:24:47;;;;;;;8.43;6.30;;;18.20;99.90;;;;;;5115572;28;20593;-42
2023/06/11 04:27:14;;;;;;;9.00;6.60;;;18.20;99.90;;;;;;5115688;28;20171;-41
2023/06/11 04:29:40;;;;;;;9.80;7.17;;;18.30;99.90;;;;;;5114416;28;20253;-43
2023/06/11 04:32:06;;;;;;;7.97;7.10;;;18.30;99.90;;;;;;5115384;28;20189;-44
2023/06/11 04:34:35;;;;;;;10.03;7.10;;;18.40;99.90;;;;;;5115138;28;20213;-44
2023/06/11 04:37:00;;;;;;;6.97;6.37;;;18.40;99.90;;;;;;5115369;28;20332;-43
2023/06/11 04:39:26;;;;;;;6.87;6.17;;;18.50;99.90;;;;;;5115132;28;20612;-42
2023/06/11 04:41:52;;;;;;;6.77;6.17;;;18.50;99.90;;;;;;5114982;28;20178;-42
2023/06/11 04:44:20;;;;;;;6.87;6.23;;;18.60;99.90;;;;;;5114694;28;20615;-43
2023/06/11 04:46:47;;;;;;;7.60;6.90;;;18.60;99.90;;;;;;5115254;28;20220;-43
2023/06/11 04:49:20;;;;;;;7.30;6.50;;;18.60;99.90;;;;;;5115302;28;20213;-43
2023/06/11 04:51:48;;;;;;;9.10;6.73;;;18.70;99.90;;;;;;5115992;28;20171;-42
2023/06/11 04:54:13;;;;;;;13.13;6.67;;;18.70;99.90;;;;;;5116567;28;20213;-42
2023/06/11 04:56:39;;;;;;;8.13;6.70;;;18.80;99.90;;;;;;5114954;28;20178;-43
2023/06/11 04:59:06;;;;;;;10.77;7.00;;;18.80;99.90;;;;;;5115028;28;20185;-43
2023/06/11 05:01:32;;;;;;;9.90;6.73;;;18.80;99.90;;;;;;5115146;28;20182;-43
2023/06/11 05:03:58;;;;;;;7.43;6.73;;;18.90;99.90;;;;;;5114516;28;20210;-45
2023/06/11 05:06:25;;;;;;;8.67;6.63;;;18.90;99.90;;;;;;5114830;28;20709;-42
2023/06/11 05:08:52;;;;;;;9.93;6.90;;;19.00;99.90;;;;;;5114847;28;20189;-42
2023/06/11 05:11:17;;;;;;;8.43;6.93;;;19.00;99.90;;;;;;5114998;28;20181;-43
2023/06/11 05:13:43;;;;;;;8.00;6.60;;;19.00;99.90;;;;;;5114370;28;20198;-43
2023/06/11 05:16:09;;;;;;;12.97;7.10;;;19.10;99.90;;;;;;5114772;28;20186;-43
2023/06/11 05:18:35;;;;;;;9.03;7.30;;;19.20;99.90;;;;;;5114549;28;20314;-42
2023/06/11 05:21:01;;;;;;;7.37;6.67;;;19.20;99.90;;;;;;5114673;28;20189;-44
2023/06/11 05:23:31;;;;;;;8.20;7.07;;;19.30;99.90;;;;;;5114246;28;20710;-44
2023/06/11 05:26:31;;;;;;;10.20;6.83;;;19.40;99.90;;;;;;5114210;28;20167;-43
2023/06/11 05:28:49;;;;;;;11.63;6.90;;;19.50;99.90;;;;;;5113276;28;20247;-41
2023/06/11 05:31:15;;;;;;;7.87;6.87;;;19.50;99.90;;;;;;5114485;28;20178;-44
2023/06/11 05:33:40;;;;;;;7.17;6.40;;;19.60;99.90;;;;;;5114265;28;20295;-43
2023/06/11 05:36:06;;;;;;;8.77;7.53;;;19.70;99.90;;;;;;5114350;28;20210;-42
2023/06/11 05:38:32;;;;;;;10.60;6.60;;;19.70;99.90;;;;;;5114016;28;20724;-42
2023/06/11 05:40:57;;;;;;;11.83;7.20;;;19.80;99.90;;;;;;5113909;28;20182;-42
2023/06/11 05:43:23;;;;;;;11.60;7.07;;;19.90;99.90;;;;;;5113995;28;20248;-42
2023/06/11 05:45:49;;;;;;;9.17;7.13;;;20.00;99.90;;;;;;5114652;28;20198;-40
2023/06/11 05:48:16;;;;;;;7.80;7.00;;;20.10;99.90;;;;;;5114564;28;20170;-44
2023/06/11 05:50:42;;;;;;;7.63;6.93;;;20.20;99.90;;;;;;5115014;28;20272;-43
2023/06/11 05:53:09;;;;;;;9.77;6.67;;;20.20;99.90;;;;;;5113830;28;20213;-42
2023/06/11 05:55:35;;;;;;;8.37;7.40;;;20.30;99.90;;;;;;5114205;28;20238;-41
2023/06/11 05:58:01;;;;;;;8.87;6.67;;;20.40;99.90;;;;;;5113892;28;20650;-43
2023/06/11 06:00:27;;;;;;;10.00;6.30;;;20.50;99.90;;;;;;5113878;28;20178;-42
2023/06/11 06:02:52;;;;;;;10.30;6.23;;;20.60;99.90;;;;;;5113999;28;20178;-43
2023/06/11 06:05:18;;;;;;;9.63;6.87;;;20.70;99.90;;;;;;5114004;28;20277;-42
2023/06/11 06:07:44;;;;;;;7.17;6.47;;;20.90;99.90;;;;;;5113630;28;20238;-41
2023/06/11 06:10:10;;;;;;;7.47;6.33;;;21.10;99.90;;;;;;5113720;28;20178;-43
2023/06/11 06:12:35;;;;;;;8.07;6.93;;;21.20;99.90;;;;;;5114041;28;20255;-43
2023/06/11 06:15:01;;;;;;;10.50;6.90;;;21.40;99.90;;;;;;5113891;28;20205;-43
2023/06/11 06:17:26;;;;;;;9.40;6.50;;;21.60;99.90;;;;;;5113659;28;20182;-42
2023/06/11 06:19:52;;;;;;;8.27;6.63;;;21.70;99.90;;;;;;5113832;28;20186;-44
2023/06/11 06:22:18;;;;;;;8.63;6.23;;;21.90;99.90;;;;;;5114066;28;20213;-43
2023/06/11 06:24:44;;;;;;;7.23;6.50;;;22.10;99.90;;;;;;5113569;28;20263;-44
2023/06/11 06:27:10;;;;;;;7.63;5.80;;;22.30;99.90;;;;;;5113721;28;20179;-45
2023/06/11 06:29:38;;;;;;;11.80;6.80;;;22.50;99.90;;;;;;5113529;28;20185;-44
2023/06/11 06:32:05;;;;;;;6.57;5.80;;;22.70;99.90;;;;;;5113532;28;20646;-44
2023/06/11 06:34:31;;;;;;;7.63;6.20;;;22.70;99.90;;;;;;5113375;28;20297;-42
2023/06/11 06:36:57;;;;;;;7.00;6.30;;;22.90;99.90;;;;;;5113846;28;20259;-44
2023/06/11 06:39:22;;;;;;;7.73;6.40;;;22.90;99.90;;;;;;5113580;28;20194;-43
2023/06/11 06:41:48;;;;;;;6.83;6.13;;;23.00;99.90;;;;;;5113433;28;20185;-44
2023/06/11 06:44:13;;;;;;;7.13;5.93;;;23.20;99.90;;;;;;5113329;28;20214;-43
2023/06/11 06:46:39;;;;;;;6.33;5.73;;;23.40;99.90;;;;;;5113741;28;20174;-44
2023/06/11 06:49:05;;;;;;;8.90;6.10;;;23.50;99.90;;;;;;5113444;28;20181;-43
2023/06/11 06:51:31;;;;;;;7.63;5.80;;;23.60;99.90;;;;;;5113496;28;20231;-41
2023/06/11 06:53:57;;;;;;;9.60;5.70;;;23.80;99.90;;;;;;5116117;28;20210;-44
2023/06/11 06:56:23;;;;;;;7.00;6.03;;;24.00;99.90;;;;;;5117214;28;20528;-44
2023/06/11 06:58:49;;;;;;;7.33;6.10;;;24.10;99.90;;;;;;5117580;28;20174;-43
2023/06/11 07:01:15;;;;;;;7.30;5.80;;;24.20;99.90;;;;;;5117315;28;20255;-45
2023/06/11 07:03:43;;;;;;;5.67;5.07;;;24.30;99.90;;;;;;5118041;28;20297;-42
2023/06/11 07:06:09;;;;;;;6.40;5.60;;;24.30;99.90;;;;;;5117786;28;20178;-41
2023/06/11 07:08:34;;;;;;;7.30;5.23;;;24.40;99.90;;;;;;5117976;28;20190;-43
2023/06/11 07:11:00;;;;;;;6.30;4.90;;;24.40;99.90;;;;;;5117701;28;20657;-42
2023/06/11 07:13:27;;;;;;;7.20;4.80;;;24.50;99.90;;;;;;5116988;27;20587;-44
2023/06/11 07:15:52;;;;;;;7.03;5.30;;;24.60;99.90;;;;;;5117701;28;20182;-44
2023/06/11 07:18:18;;;;;;;5.23;4.73;;;24.70;99.90;;;;;;5117122;28;20189;-44
2023/06/11 07:20:44;;;;;;;5.80;4.87;;;24.80;99.90;;;;;;5117979;28;20187;-44
2023/06/11 07:23:10;;;;;;;6.50;4.97;;;24.80;99.90;;;;;;5116462;28;20201;-42
2023/06/11 07:25:37;;;;;;;6.37;5.20;;;24.90;99.90;;;;;;5116641;28;20567;-44
2023/06/11 07:28:04;;;;;;;5.70;4.80;;;25.00;99.90;;;;;;5116653;28;20186;-44
2023/06/11 07:30:30;;;;;;;6.67;4.93;;;25.10;99.90;;;;;;5116684;27;20170;-45
2023/06/11 07:32:56;;;;;;;7.87;4.80;;;25.10;99.90;;;;;;5116692;28;20177;-41
2023/06/11 07:35:23;;;;;;;13.00;4.97;;;25.20;99.90;;;;;;5116555;28;20202;-43
2023/06/11 07:37:49;;;;;;;6.27;4.83;;;25.20;99.90;;;;;;5116155;28;20282;-43
2023/06/11 07:40:15;;;;;;;8.80;5.00;;;25.20;99.90;;;;;;5116165;28;20231;-44
2023/06/11 07:42:45;;;;;;;5.87;4.60;;;25.40;99.90;;;;;;5116454;28;20189;-44
2023/06/11 07:45:12;;;;;;;4.93;4.43;;;25.40;99.90;;;;;;5115979;28;20224;-46
2023/06/11 07:47:38;;;;;;;7.80;5.00;;;25.60;99.90;;;;;;5116029;28;20262;-42
2023/06/11 07:50:04;;;;;;;4.90;4.50;;;25.70;99.90;;;;;;5115892;28;20170;-42
2023/06/11 07:52:30;;;;;;;5.07;4.57;;;25.70;99.90;;;;;;5116187;28;20508;-43
2023/06/11 07:54:56;;;;;;;4.97;4.50;;;25.80;99.90;;;;;;5115870;28;20254;-43
2023/06/11 07:57:22;;;;;;;8.97;5.13;;;25.80;99.90;;;;;;5116345;28;20555;-44
2023/06/11 07:59:47;;;;;;;5.93;4.83;;;25.90;99.90;;;;;;5116260;28;20182;-43
2023/06/11 08:02:14;;;;;;;5.50;4.90;;;25.90;99.90;;;;;;5116779;28;20209;-43
2023/06/11 08:04:40;;;;;;;5.80;4.93;;;26.00;99.90;;;;;;5115471;28;20626;-44
2023/06/11 08:07:06;;;;;;;7.60;5.27;;;26.10;99.90;;;;;;5114512;28;20178;-43
2023/06/11 08:09:35;;;;;;;5.43;4.93;;;26.20;99.90;;;;;;5116394;28;20266;-45
2023/06/11 08:12:01;;;;;;;6.17;4.57;;;26.30;99.90;;;;;;5115555;28;20646;-44
2023/06/11 08:14:26;;;;;;;6.47;4.80;;;26.40;99.90;;;;;;5115369;28;20190;-43
2023/06/11 08:16:52;;;;;;;5.70;4.30;;;26.50;99.90;;;;;;5115996;28;20591;-43
2023/06/11 08:19:17;;;;;;;9.23;4.93;;;26.50;99.90;;;;;;5115495;28;20185;-44
2023/06/11 08:21:43;;;;;;;7.23;4.23;;;26.70;99.90;;;;;;5114685;28;20178;-42
2023/06/11 08:24:10;;;;;;;5.07;4.57;;;26.80;99.90;;;;;;5116281;28;20280;-43
2023/06/11 08:26:36;;;;;;;7.13;4.67;;;26.90;99.90;;;;;;5115636;28;20175;-44
2023/06/11 08:29:01;;;;;;;5.33;4.50;;;26.90;99.90;;;;;;5115577;28;20545;-45
2023/06/11 08:31:27;;;;;;;5.03;4.20;;;27.10;99.90;;;;;;5115898;28;20220;-45
2023/06/11 08:33:53;;;;;;;4.33;3.93;;;27.20;99.90;;;;;;5115984;28;20220;-44
2023/06/11 08:36:20;;;;;;;4.80;4.30;;;27.20;99.90;;;;;;5115808;28;20596;-43
2023/06/11 08:38:46;;;;;;;4.77;4.37;;;27.20;99.90;;;;;;5114949;28;20205;-45
2023/06/11 08:41:13;;;;;;;6.50;4.80;;;27.30;99.90;;;;;;5115174;28;20240;-45
2023/06/11 08:43:38;;;;;;;5.20;4.70;;;27.30;99.90;;;;;;5114755;28;20210;-44
2023/06/11 08:46:05;;;;;;;5.93;4.00;;;27.40;99.90;;;;;;5114741;28;20180;-45
2023/06/11 08:48:34;;;;;;;6.37;4.30;;;27.50;99.90;;;;;;5114908;28;20174;-46
2023/06/11 08:51:03;;;;;;;6.90;4.27;;;27.50;99.90;;;;;;5114760;28;20170;-45
2023/06/11 08:53:30;;;;;;;6.07;4.15;;;27.60;99.90;;;;;;5115178;28;20220;-44
2023/06/11 08:55:56;;;;;;;4.53;4.13;;;27.80;99.90;;;;;;5114618;28;20178;-44
2023/06/11 08:58:22;;;;;;;5.40;3.83;;;27.90;99.90;;;;;;5114561;28;20170;-43
2023/06/11 09:00:48;;;;;;;3.65;3.33;;;28.00;99.90;;;;;;5115535;28;20182;-46
2023/06/11 09:03:15;;;;;;;3.83;3.40;;;28.00;99.90;;;;;;5114438;28;20284;-45
2023/06/11 09:05:42;;;;;;;3.95;3.65;;;28.00;99.90;;;;;;5114475;28;20166;-45
2023/06/11 09:08:08;;;;;;;5.20;3.17;;;28.10;99.90;;;;;;5115088;28;20177;-44
2023/06/11 09:10:46;;;;;;;3.50;3.20;;;28.20;99.90;;;;;;5114369;28;20231;-44
2023/06/11 09:13:12;;;;;;;3.88;3.42;;;28.20;99.90;;;;;;5114230;28;20162;-45
2023/06/11 09:15:49;;;;;;;4.35;3.10;;;28.20;99.90;;;;;;5113909;28;20585;-45
2023/06/11 09:18:22;;;;;;;7.22;3.50;;;28.30;99.90;;;;;;5114394;28;20219;-43
2023/06/11 09:21:01;;;;;;;3.40;3.10;;;28.30;99.90;;;;;;5114027;28;20154;-44
2023/06/11 09:23:29;;;;;;;4.68;3.08;;;28.30;99.90;;;;;;5114844;28;20213;-45
2023/06/11 09:25:56;;;;;;;4.22;3.50;;;28.40;99.90;;;;;;5114613;28;20186;-44
2023/06/11 09:28:31;;;;;;;5.35;3.80;;;28.40;99.90;;;;;;5114109;28;20213;-45
2023/06/11 09:30:58;;;;;;;6.43;3.25;;;28.50;99.90;;;;;;5114648;28;20146;-44
2023/06/11 09:33:24;;;;;;;4.65;3.33;;;28.50;99.90;;;;;;5113966;28;20178;-46
2023/06/11 09:35:50;;;;;;;4.47;3.38;;;28.60;99.90;;;;;;5114166;28;20246;-45
2023/06/11 09:38:17;;;;;;;3.80;3.50;;;28.70;99.90;;;;;;5114141;28;20530;-46
2023/06/11 09:40:49;;;;;;;5.18;3.35;;;28.70;99.90;;;;;;5114913;28;20246;-46
2023/06/11 09:43:18;;;;;;;4.40;3.55;;;28.90;99.90;;;;;;5114578;28;20226;-43
2023/06/11 09:45:44;;;;;;;10.30;3.33;;;28.90;99.90;;;;;;5113863;28;20669;-44
2023/06/11 09:48:14;;;;;;;4.78;3.92;;;28.90;99.90;;;;;;5114086;28;20179;-44
2023/06/11 09:50:42;;;;;;;4.13;3.10;;;29.00;99.90;;;;;;5114032;28;20170;-47
2023/06/11 09:53:10;;;;;;;4.63;3.55;;;29.00;99.90;;;;;;5114096;28;20184;-46
2023/06/11 09:55:37;;;;;;;4.65;3.17;;;29.00;99.90;;;;;;5114410;28;20174;-45
2023/06/11 09:58:03;;;;;;;3.50;3.20;;;29.10;99.90;;;;;;5114441;28;20174;-45
2023/06/11 10:00:30;;;;;;;3.70;3.33;;;29.10;99.90;;;;;;5114578;28;20167;-51
2023/06/11 10:02:56;;;;;;;7.40;3.30;;;29.20;99.90;;;;;;5113654;28;20170;-51
2023/06/11 10:05:22;;;;;;;3.83;3.10;;;29.30;99.90;;;;;;5114014;28;20250;-51
2023/06/11 10:08:09;;;;;;;6.95;3.03;;;29.40;99.90;;;;;;5114361;28;20634;-51
2023/06/11 10:10:39;;;;;;;3.20;2.90;;;29.40;99.90;;;;;;5114165;28;20225;-52
2023/06/11 10:13:04;;;;;;;3.55;3.25;;;29.50;99.90;;;;;;5113897;28;20257;-51
2023/06/11 10:15:32;;;;;;;7.38;2.83;;;29.60;99.90;;;;;;5113872;28;20582;-50
2023/06/11 10:17:58;;;;;;;3.50;3.20;;;29.60;99.90;;;;;;5114179;28;20587;-51
2023/06/11 10:20:29;;;;;;;3.10;2.80;;;29.70;99.90;;;;;;5113828;28;20277;-52
2023/06/11 10:23:11;;;;;;;3.70;3.10;;;29.80;99.90;;;;;;5113290;28;20185;-51
2023/06/11 10:25:39;;;;;;;3.20;2.90;;;29.80;99.90;;;;;;5113945;28;20642;-51
2023/06/11 10:28:06;;;;;;;3.08;2.80;;;29.90;99.90;;;;;;5114886;28;20174;-51
2023/06/11 10:30:31;;;;;;;5.72;3.20;;;30.00;99.90;;;;;;5117376;28;20166;-51
2023/06/11 10:33:00;;;;;;;5.85;3.25;;;30.00;99.90;;;;;;5117449;28;20181;-52
2023/06/11 10:35:32;;;;;;;5.63;2.78;;;30.00;99.90;;;;;;5117260;28;20229;-52
2023/06/11 10:38:03;;;;;;;4.03;3.20;;;30.10;99.90;;;;;;5117205;28;20194;-51
2023/06/11 10:40:36;;;;;;;4.50;2.92;;;30.10;99.90;;;;;;5117615;28;20601;-52
2023/06/11 10:43:12;;;;;;;8.07;2.75;;;30.10;99.90;;;;;;5117085;28;20162;-52
2023/06/11 10:45:38;;;;;;;3.58;3.15;;;30.10;99.90;;;;;;5117277;28;20190;-52
2023/06/11 10:48:05;;;;;;;3.60;2.88;;;30.20;99.90;;;;;;5117468;28;20178;-52
2023/06/11 10:50:31;;;;;;;4.15;3.00;;;30.20;99.90;;;;;;5117425;28;20178;-51
2023/06/11 10:53:11;;;;;;;6.18;4.05;;;30.30;99.90;;;;;;5117652;28;20182;-52
2023/06/11 10:55:44;;;;;;;5.95;3.20;;;30.30;99.90;;;;;;5117897;28;20566;-50
2023/06/11 10:58:23;;;;;;;3.72;3.15;;;30.30;99.90;;;;;;5117127;28;20224;-52
2023/06/11 11:00:51;;;;;;;4.90;3.15;;;30.40;99.90;;;;;;5116809;28;20627;-51
2023/06/11 11:03:21;;;;;;;3.10;2.85;;;30.40;99.90;;;;;;5116592;28;20209;-52
2023/06/11 11:05:49;;;;;;;4.78;3.20;;;30.50;99.90;;;;;;5116909;28;20200;-52
2023/06/11 11:08:15;;;;;;;4.07;3.17;;;30.50;99.90;;;;;;5116735;28;20174;-51
2023/06/11 11:10:41;;;;;;;6.70;3.35;;;30.50;99.90;;;;;;5117054;28;20563;-51
2023/06/11 11:13:07;;;;;;;3.58;3.28;;;30.50;99.90;;;;;;5116798;28;20174;-52
2023/06/11 11:15:33;;;;;;;4.40;3.10;;;30.50;99.90;;;;;;5116812;28;20178;-52
2023/06/11 11:17:59;;;;;;;4.53;3.20;;;30.60;99.90;;;;;;5117032;28;20194;-46
2023/06/11 11:20:24;;;;;;;6.43;3.47;;;30.60;99.90;;;;;;5116756;28;20210;-44
2023/06/11 11:22:52;;;;;;;5.55;3.47;;;30.70;99.90;;;;;;5116658;28;20174;-45
2023/06/11 11:25:20;;;;;;;6.88;3.17;;;30.80;99.90;;;;;;5116417;28;20717;-44
2023/06/11 11:27:47;;;;;;;4.32;3.50;;;30.80;99.90;;;;;;5116682;28;20189;-46
2023/06/11 11:30:13;;;;;;;5.75;3.60;;;30.80;99.90;;;;;;5116239;28;20179;-45
2023/06/11 11:32:40;;;;;;;4.65;3.05;;;30.90;99.90;;;;;;5116679;28;20178;-45
2023/06/11 11:35:07;;;;;;;9.32;3.30;;;30.90;99.90;;;;;;5116238;28;20304;-46
2023/06/11 11:37:33;;;;;;;5.32;3.30;;;31.00;99.90;;;;;;5116109;28;20190;-45
2023/06/11 11:40:08;;;;;;;4.28;3.40;;;31.00;99.90;;;;;;5114211;28;20223;-46
2023/06/11 11:42:49;;;;;;;4.10;3.20;;;31.00;99.90;;;;;;5116058;28;20177;-46
2023/06/11 11:45:16;;;;;;;4.53;3.28;;;31.00;99.90;;;;;;5116011;28;20294;-46
2023/06/11 11:47:44;;;;;;;4.97;3.60;;;31.10;99.90;;;;;;5114689;28;20178;-45
2023/06/11 11:50:27;;;;;;;5.88;3.63;;;31.10;99.90;;;;;;5115922;28;20250;-46
2023/06/11 11:53:03;;;;;;;6.15;3.40;;;31.10;99.90;;;;;;5116090;28;20166;-45
2023/06/11 11:55:30;;;;;;;5.47;3.80;;;31.00;99.90;;;;;;5115929;28;20216;-45
2023/06/11 11:58:04;;;;;;;4.88;3.63;;;31.10;99.90;;;;;;5115739;28;20650;-45
2023/06/11 12:00:30;;;;;;;6.18;3.25;;;31.10;99.90;;;;;;5115873;28;20192;-45
2023/06/11 12:02:56;;;;;;;4.32;3.40;;;31.10;99.90;;;;;;5115691;28;20249;-45
2023/06/11 12:05:26;;;;;;;11.48;3.65;;;31.10;99.90;;;;;;5114809;28;20251;-46
2023/06/11 12:07:52;;;;;;;4.20;3.67;;;31.20;99.90;;;;;;5116063;28;20226;-45
2023/06/11 12:10:18;;;;;;;4.53;4.03;;;31.20;99.90;;;;;;5115592;28;20205;-52
2023/06/11 12:12:43;;;;;;;5.18;3.30;;;31.30;99.90;;;;;;5115464;28;20167;-51
2023/06/11 12:15:10;;;;;;;4.70;3.60;;;31.40;99.90;;;;;;5115981;28;20198;-52
2023/06/11 12:17:39;;;;;;;3.85;3.50;;;31.50;99.90;;;;;;5115734;28;20216;-51
2023/06/11 12:20:05;;;;;;;6.38;3.75;;;31.60;99.90;;;;;;5115646;28;20178;-51
2023/06/11 12:22:31;;;;;;;3.88;3.58;;;31.60;99.90;;;;;;5115690;28;20184;-52
2023/06/11 12:24:56;;;;;;;4.72;3.42;;;31.70;99.90;;;;;;5115750;28;20206;-52
2023/06/11 12:27:22;;;;;;;4.25;3.20;;;31.70;99.90;;;;;;5115727;28;20178;-52
2023/06/11 12:29:53;;;;;;;5.97;3.40;;;31.70;99.90;;;;;;5115273;28;20178;-52
2023/06/11 12:32:22;;;;;;;6.28;3.38;;;31.80;99.90;;;;;;5116163;28;20188;-52
2023/06/11 12:34:48;;;;;;;3.47;3.17;;;31.90;99.90;;;;;;5115319;28;20224;-52
2023/06/11 12:37:14;;;;;;;4.78;3.50;;;31.90;99.90;;;;;;5115284;28;20193;-52
2023/06/11 12:39:43;;;;;;;3.40;3.10;;;32.00;99.90;;;;;;5116091;28;20174;-52
2023/06/11 12:42:13;;;;;;;4.05;3.40;;;32.00;99.90;;;;;;5115021;28;20193;-52
2023/06/11 12:44:41;;;;;;;3.90;3.38;;;32.00;99.90;;;;;;5114708;28;20209;-52
2023/06/11 12:47:07;;;;;;;4.60;3.45;;;32.10;99.90;;;;;;5114730;28;20170;-52